EGHQEGKB

Guest
Details From EGHQ - Newquay
To EGKB - Biggin Hill
Flight Number -
Tags generated
Created
Modified
Stats Distance 198 nm / 367 km
Max Altitude 21,900 ft / 6,675 m
Waypoints 3
Social Downloads 0
Likes 0
Share VATSIM

Download

Looking for another format? Having issues loading an existing format? Contact us
Advertisement - Login to hide

Notes

Basic altitude profile: - Ascent Rate: 2500ft/min - Ascent Speed: 250kts - Cruise Altitude: 35000ft - Cruise Speed: 420kts - Descent Rate: 1500ft/min - Descent Speed: 250kts Options: - Use NATs: no - Use PACOTS: no - Use low airways: no - Use high airways: yes

Route

EGHQ VLN EGKB

ID Type Via Altitude Latitude Longitude Leg Dist Tot Dist Heading (true) Name
O EGHQ APT - 0 ft / 0 m 50.44076˚ -4.99533˚ - 0 nm - Newquay
VLN VOR - 21,900 ft / 6,675 m 51.00501˚ -2.63875˚ 95 nm 95 nm 68° / 70° -
O EGKB APT - 0 ft / 0 m 51.32671˚ 0.03288˚ 102 nm 198 nm 78° / 80° Biggin Hill

Altitude Profile

Advertisement - Login to hide

Weather


0- 5 10 15 20 25 30 35+ Temperature / ° C

Clouds and Precipitation
Forecast for 2017-12-14 18:00 UTC. Updated 4 minutes ago

Ground ~20,000 ft ~40,000 ft Winds

EGHQ

Details ICAO EGHQ
Name Newquay
Region United Kingdom
Timezone Europe/London (UTC+0.0)
Stats Elevation 389 ft / 119 m (AMSL)
Location 50.440759° -4.995334°
Runways 1
Magnetic Variation 2.046° W

METAR

EGHQ 141320Z 28020KT 9999 VCSH SCT020 FEW034CB 06/01 Q0993

Decode

TAF

Not found

Departure Runways

ID Width Length Bearing (true) Bearing (mag) Surface Threshold Offset Overrun Length
12 148 ft / 45 m 9,006 ft / 2,745 m 120.58° 122.63° Asphalt 0 ft / 0 m 0 ft / 0 m
30 148 ft / 45 m 9,006 ft / 2,745 m 300.60° 302.65° Asphalt 1,014 ft / 309 m 0 ft / 0 m

EGKB

Details ICAO EGKB (BQH)
Name Biggin Hill
Region United Kingdom
Timezone Europe/London (UTC+0.0)
Stats Elevation 598 ft / 182 m (AMSL)
Location 51.326710° 0.032876°
Runways 2
Magnetic Variation 0.374° W

METAR

EGKB 141320Z 24013KT 210V270 9999 FEW020 05/02 Q0990

Decode

TAF

Not found

Destination Runways

ID Width Length Bearing (true) Bearing (mag) Surface Threshold Offset Overrun Length
03 148 ft / 45 m 5,915 ft / 1,803 m 25.53° 25.90° Asphalt 804 ft / 245 m 0 ft / 0 m
11 59 ft / 18 m 2,579 ft / 786 m 105.47° 105.84° Asphalt 0 ft / 0 m 0 ft / 0 m
21 148 ft / 45 m 5,915 ft / 1,803 m 205.53° 205.90° Asphalt 0 ft / 0 m 0 ft / 0 m
29 59 ft / 18 m 2,579 ft / 786 m 285.48° 285.85° Asphalt 0 ft / 0 m 0 ft / 0 m

Approach Navaids

Runway Type Ident Frequency Range Bearing (true) Bearing (mag) Slope Elevation
21 Localiser IBGH 109.35 MHz 18 nm / 33 km 205.65° 206.02° - 598 ft / 182 m (AMSL)
21 Glidescope IBGH 109.35 MHz 10 nm / 19 km 205.53° 205.90° 3.00° 598 ft / 182 m (AMSL)
21 DME IBGH 109.35 MHz 18 nm / 33 km - - - 570 ft / 174 m (AMSL)

Popular Alternatives